sensor_id;sensor_type;location;lat;lon;timestamp;P1;durP1;ratioP1;P2;durP2;ratioP2
53108;SDS011;39007;53.090;6.074;2022-12-18T00:01:36;111.75;;;50.60;;
53108;SDS011;39007;53.090;6.074;2022-12-18T00:04:03;114.97;;;49.53;;
53108;SDS011;39007;53.090;6.074;2022-12-18T00:06:30;94.47;;;45.88;;
53108;SDS011;39007;53.090;6.074;2022-12-18T00:08:58;112.45;;;49.65;;
53108;SDS011;39007;53.090;6.074;2022-12-18T00:11:25;112.88;;;50.20;;
53108;SDS011;39007;53.090;6.074;2022-12-18T00:13:52;102.97;;;45.28;;
53108;SDS011;39007;53.090;6.074;2022-12-18T00:16:20;102.50;;;46.03;;
53108;SDS011;39007;53.090;6.074;2022-12-18T00:18:46;110.95;;;48.92;;
53108;SDS011;39007;53.090;6.074;2022-12-18T00:21:13;111.40;;;48.65;;
53108;SDS011;39007;53.090;6.074;2022-12-18T00:23:40;107.03;;;48.53;;
53108;SDS011;39007;53.090;6.074;2022-12-18T00:26:07;95.25;;;41.35;;
53108;SDS011;39007;53.090;6.074;2022-12-18T00:28:34;106.00;;;46.25;;
53108;SDS011;39007;53.090;6.074;2022-12-18T00:33:27;102.90;;;46.78;;
53108;SDS011;39007;53.090;6.074;2022-12-18T00:35:53;105.53;;;45.58;;
53108;SDS011;39007;53.090;6.074;2022-12-18T00:38:19;109.20;;;46.30;;
53108;SDS011;39007;53.090;6.074;2022-12-18T00:40:45;95.18;;;41.85;;
53108;SDS011;39007;53.090;6.074;2022-12-18T00:43:11;106.80;;;46.33;;
53108;SDS011;39007;53.090;6.074;2022-12-18T00:45:37;108.93;;;46.83;;
53108;SDS011;39007;53.090;6.074;2022-12-18T00:48:03;100.60;;;44.63;;
53108;SDS011;39007;53.090;6.074;2022-12-18T00:50:29;105.30;;;44.15;;
53108;SDS011;39007;53.090;6.074;2022-12-18T00:52:55;98.85;;;44.42;;
53108;SDS011;39007;53.090;6.074;2022-12-18T00:55:22;98.30;;;41.80;;
53108;SDS011;39007;53.090;6.074;2022-12-18T00:57:48;98.25;;;40.22;;
53108;SDS011;39007;53.090;6.074;2022-12-18T01:00:17;92.05;;;40.80;;
53108;SDS011;39007;53.090;6.074;2022-12-18T01:02:43;93.05;;;42.00;;
53108;SDS011;39007;53.090;6.074;2022-12-18T01:05:10;106.22;;;44.10;;
53108;SDS011;39007;53.090;6.074;2022-12-18T01:07:36;102.00;;;42.15;;
53108;SDS011;39007;53.090;6.074;2022-12-18T01:10:03;98.40;;;41.30;;
53108;SDS011;39007;53.090;6.074;2022-12-18T01:12:30;108.20;;;43.80;;
53108;SDS011;39007;53.090;6.074;2022-12-18T01:14:56;110.88;;;46.50;;
53108;SDS011;39007;53.090;6.074;2022-12-18T01:17:22;90.75;;;40.10;;
53108;SDS011;39007;53.090;6.074;2022-12-18T01:19:48;100.15;;;42.13;;
53108;SDS011;39007;53.090;6.074;2022-12-18T01:22:14;99.47;;;41.50;;
53108;SDS011;39007;53.090;6.074;2022-12-18T01:24:41;98.50;;;41.13;;
53108;SDS011;39007;53.090;6.074;2022-12-18T01:27:07;95.30;;;41.67;;
53108;SDS011;39007;53.090;6.074;2022-12-18T01:29:33;93.40;;;41.30;;
53108;SDS011;39007;53.090;6.074;2022-12-18T01:31:59;104.05;;;40.92;;
53108;SDS011;39007;53.090;6.074;2022-12-18T01:34:25;95.95;;;41.17;;
53108;SDS011;39007;53.090;6.074;2022-12-18T01:36:52;101.13;;;44.13;;
53108;SDS011;39007;53.090;6.074;2022-12-18T01:39:18;101.20;;;41.03;;
53108;SDS011;39007;53.090;6.074;2022-12-18T01:41:44;100.07;;;42.33;;
53108;SDS011;39007;53.090;6.074;2022-12-18T01:47:15;97.28;;;40.75;;
53108;SDS011;39007;53.090;6.074;2022-12-18T01:49:44;88.32;;;38.47;;
53108;SDS011;39007;53.090;6.074;2022-12-18T01:52:10;90.90;;;39.22;;
53108;SDS011;39007;53.090;6.074;2022-12-18T01:54:36;95.00;;;40.58;;
53108;SDS011;39007;53.090;6.074;2022-12-18T01:57:02;89.25;;;40.45;;
53108;SDS011;39007;53.090;6.074;2022-12-18T01:59:28;88.20;;;40.00;;
53108;SDS011;39007;53.090;6.074;2022-12-18T02:01:55;85.72;;;37.65;;
53108;SDS011;39007;53.090;6.074;2022-12-18T02:04:23;86.25;;;38.85;;
53108;SDS011;39007;53.090;6.074;2022-12-18T02:06:51;87.75;;;39.13;;
53108;SDS011;39007;53.090;6.074;2022-12-18T02:09:20;91.50;;;40.28;;
53108;SDS011;39007;53.090;6.074;2022-12-18T02:11:53;87.30;;;38.67;;
53108;SDS011;39007;53.090;6.074;2022-12-18T02:14:24;90.25;;;40.10;;
53108;SDS011;39007;53.090;6.074;2022-12-18T02:19:39;90.85;;;40.28;;
53108;SDS011;39007;53.090;6.074;2022-12-18T02:27:17;89.78;;;39.55;;
53108;SDS011;39007;53.090;6.074;2022-12-18T02:29:46;93.15;;;39.95;;
53108;SDS011;39007;53.090;6.074;2022-12-18T02:32:15;94.05;;;40.75;;
53108;SDS011;39007;53.090;6.074;2022-12-18T02:34:43;85.70;;;38.65;;
53108;SDS011;39007;53.090;6.074;2022-12-18T02:37:11;86.97;;;39.03;;
53108;SDS011;39007;53.090;6.074;2022-12-18T02:39:39;87.00;;;38.78;;
53108;SDS011;39007;53.090;6.074;2022-12-18T02:42:06;90.35;;;40.05;;
53108;SDS011;39007;53.090;6.074;2022-12-18T02:44:34;90.47;;;39.58;;
53108;SDS011;39007;53.090;6.074;2022-12-18T02:47:00;96.93;;;40.10;;
53108;SDS011;39007;53.090;6.074;2022-12-18T02:52:20;92.63;;;39.15;;
53108;SDS011;39007;53.090;6.074;2022-12-18T02:57:33;90.50;;;39.63;;
53108;SDS011;39007;53.090;6.074;2022-12-18T03:00:08;88.80;;;38.33;;
53108;SDS011;39007;53.090;6.074;2022-12-18T03:02:44;91.70;;;39.00;;
53108;SDS011;39007;53.090;6.074;2022-12-18T03:08:27;86.82;;;36.83;;
53108;SDS011;39007;53.090;6.074;2022-12-18T03:10:28;90.70;;;40.75;;
53108;SDS011;39007;53.090;6.074;2022-12-18T03:13:04;93.43;;;41.22;;
53108;SDS011;39007;53.090;6.074;2022-12-18T03:15:34;99.10;;;40.55;;
53108;SDS011;39007;53.090;6.074;2022-12-18T03:18:08;90.10;;;39.05;;
53108;SDS011;39007;53.090;6.074;2022-12-18T03:20:36;98.00;;;41.05;;
53108;SDS011;39007;53.090;6.074;2022-12-18T03:23:04;99.10;;;41.67;;
53108;SDS011;39007;53.090;6.074;2022-12-18T03:25:33;94.72;;;41.70;;
53108;SDS011;39007;53.090;6.074;2022-12-18T03:28:00;90.03;;;40.33;;
53108;SDS011;39007;53.090;6.074;2022-12-18T03:30:28;85.88;;;40.13;;
53108;SDS011;39007;53.090;6.074;2022-12-18T03:32:58;91.38;;;41.38;;
53108;SDS011;39007;53.090;6.074;2022-12-18T03:35:29;95.18;;;41.42;;
53108;SDS011;39007;53.090;6.074;2022-12-18T03:37:56;93.93;;;42.13;;
53108;SDS011;39007;53.090;6.074;2022-12-18T03:40:24;103.13;;;41.67;;
53108;SDS011;39007;53.090;6.074;2022-12-18T03:42:55;89.93;;;40.08;;
53108;SDS011;39007;53.090;6.074;2022-12-18T03:50:30;102.60;;;41.83;;
53108;SDS011;39007;53.090;6.074;2022-12-18T03:55:44;88.47;;;39.28;;
53108;SDS011;39007;53.090;6.074;2022-12-18T03:58:11;91.85;;;42.92;;
53108;SDS011;39007;53.090;6.074;2022-12-18T04:00:39;99.20;;;41.70;;
53108;SDS011;39007;53.090;6.074;2022-12-18T04:03:06;100.55;;;42.03;;
53108;SDS011;39007;53.090;6.074;2022-12-18T04:05:33;96.13;;;41.50;;
53108;SDS011;39007;53.090;6.074;2022-12-18T04:08:00;95.53;;;42.22;;
53108;SDS011;39007;53.090;6.074;2022-12-18T04:10:26;85.18;;;38.75;;
53108;SDS011;39007;53.090;6.074;2022-12-18T04:12:55;95.13;;;43.33;;
53108;SDS011;39007;53.090;6.074;2022-12-18T04:15:22;90.65;;;41.40;;
53108;SDS011;39007;53.090;6.074;2022-12-18T04:17:48;91.35;;;41.75;;
53108;SDS011;39007;53.090;6.074;2022-12-18T04:20:15;88.95;;;38.85;;
53108;SDS011;39007;53.090;6.074;2022-12-18T04:22:41;89.65;;;39.40;;
53108;SDS011;39007;53.090;6.074;2022-12-18T04:25:07;86.10;;;39.47;;
53108;SDS011;39007;53.090;6.074;2022-12-18T04:27:37;82.85;;;38.80;;
53108;SDS011;39007;53.090;6.074;2022-12-18T04:30:03;80.15;;;38.58;;
53108;SDS011;39007;53.090;6.074;2022-12-18T04:32:29;85.90;;;39.55;;
53108;SDS011;39007;53.090;6.074;2022-12-18T04:34:55;81.88;;;38.25;;
53108;SDS011;39007;53.090;6.074;2022-12-18T04:37:21;82.35;;;37.17;;
53108;SDS011;39007;53.090;6.074;2022-12-18T04:39:47;72.45;;;35.75;;
53108;SDS011;39007;53.090;6.074;2022-12-18T04:42:13;74.90;;;35.75;;
53108;SDS011;39007;53.090;6.074;2022-12-18T04:44:40;76.43;;;35.35;;
53108;SDS011;39007;53.090;6.074;2022-12-18T04:47:06;74.47;;;35.67;;
53108;SDS011;39007;53.090;6.074;2022-12-18T04:49:32;82.70;;;36.47;;
53108;SDS011;39007;53.090;6.074;2022-12-18T04:51:58;75.38;;;36.28;;
53108;SDS011;39007;53.090;6.074;2022-12-18T04:54:24;77.05;;;36.22;;
53108;SDS011;39007;53.090;6.074;2022-12-18T04:56:51;79.47;;;38.38;;
53108;SDS011;39007;53.090;6.074;2022-12-18T04:59:17;75.05;;;35.85;;
53108;SDS011;39007;53.090;6.074;2022-12-18T05:01:43;83.30;;;37.45;;
53108;SDS011;39007;53.090;6.074;2022-12-18T05:04:09;77.70;;;35.90;;
53108;SDS011;39007;53.090;6.074;2022-12-18T05:06:35;74.68;;;35.38;;
53108;SDS011;39007;53.090;6.074;2022-12-18T05:09:01;72.72;;;34.72;;
53108;SDS011;39007;53.090;6.074;2022-12-18T05:11:27;77.50;;;35.63;;
53108;SDS011;39007;53.090;6.074;2022-12-18T05:13:53;67.38;;;33.13;;
53108;SDS011;39007;53.090;6.074;2022-12-18T05:16:19;70.50;;;33.13;;
53108;SDS011;39007;53.090;6.074;2022-12-18T05:18:45;69.80;;;33.58;;
53108;SDS011;39007;53.090;6.074;2022-12-18T05:21:12;67.63;;;31.58;;
53108;SDS011;39007;53.090;6.074;2022-12-18T05:23:38;74.78;;;33.17;;
53108;SDS011;39007;53.090;6.074;2022-12-18T05:26:05;73.13;;;32.55;;
53108;SDS011;39007;53.090;6.074;2022-12-18T05:28:32;65.43;;;31.55;;
53108;SDS011;39007;53.090;6.074;2022-12-18T05:30:59;63.67;;;31.10;;
53108;SDS011;39007;53.090;6.074;2022-12-18T05:33:27;68.97;;;32.10;;
53108;SDS011;39007;53.090;6.074;2022-12-18T05:35:53;70.38;;;32.58;;
53108;SDS011;39007;53.090;6.074;2022-12-18T05:38:20;65.82;;;30.92;;
53108;SDS011;39007;53.090;6.074;2022-12-18T05:40:50;65.95;;;30.00;;
53108;SDS011;39007;53.090;6.074;2022-12-18T05:43:16;64.38;;;28.15;;
53108;SDS011;39007;53.090;6.074;2022-12-18T05:45:43;57.72;;;29.50;;
53108;SDS011;39007;53.090;6.074;2022-12-18T05:48:09;60.80;;;29.60;;
53108;SDS011;39007;53.090;6.074;2022-12-18T05:50:39;64.25;;;29.35;;
53108;SDS011;39007;53.090;6.074;2022-12-18T05:53:06;64.43;;;30.38;;
53108;SDS011;39007;53.090;6.074;2022-12-18T05:55:33;61.00;;;27.45;;
53108;SDS011;39007;53.090;6.074;2022-12-18T05:57:59;58.22;;;28.85;;
53108;SDS011;39007;53.090;6.074;2022-12-18T06:00:25;58.72;;;28.48;;
53108;SDS011;39007;53.090;6.074;2022-12-18T06:02:52;62.80;;;28.13;;
53108;SDS011;39007;53.090;6.074;2022-12-18T06:05:18;59.72;;;28.17;;
53108;SDS011;39007;53.090;6.074;2022-12-18T06:07:44;58.10;;;27.05;;
53108;SDS011;39007;53.090;6.074;2022-12-18T06:10:10;58.88;;;28.50;;
53108;SDS011;39007;53.090;6.074;2022-12-18T06:12:36;55.85;;;27.40;;
53108;SDS011;39007;53.090;6.074;2022-12-18T06:15:03;57.38;;;27.13;;
53108;SDS011;39007;53.090;6.074;2022-12-18T06:17:29;58.78;;;28.27;;
53108;SDS011;39007;53.090;6.074;2022-12-18T06:19:55;55.20;;;27.33;;
53108;SDS011;39007;53.090;6.074;2022-12-18T06:22:22;55.42;;;25.85;;
53108;SDS011;39007;53.090;6.074;2022-12-18T06:24:48;55.05;;;26.35;;
53108;SDS011;39007;53.090;6.074;2022-12-18T06:27:14;51.53;;;25.75;;
53108;SDS011;39007;53.090;6.074;2022-12-18T06:29:40;55.15;;;24.80;;
53108;SDS011;39007;53.090;6.074;2022-12-18T06:32:07;48.42;;;24.73;;
53108;SDS011;39007;53.090;6.074;2022-12-18T06:34:33;48.50;;;25.10;;
53108;SDS011;39007;53.090;6.074;2022-12-18T06:37:00;52.58;;;24.40;;
53108;SDS011;39007;53.090;6.074;2022-12-18T06:39:28;48.50;;;23.92;;
53108;SDS011;39007;53.090;6.074;2022-12-18T06:41:55;49.10;;;23.30;;
53108;SDS011;39007;53.090;6.074;2022-12-18T06:44:21;47.90;;;23.88;;
53108;SDS011;39007;53.090;6.074;2022-12-18T06:46:47;49.00;;;22.90;;
53108;SDS011;39007;53.090;6.074;2022-12-18T06:49:13;46.35;;;23.20;;
53108;SDS011;39007;53.090;6.074;2022-12-18T06:51:41;55.60;;;25.00;;
53108;SDS011;39007;53.090;6.074;2022-12-18T06:54:07;51.65;;;24.08;;
53108;SDS011;39007;53.090;6.074;2022-12-18T06:56:33;52.28;;;23.55;;
53108;SDS011;39007;53.090;6.074;2022-12-18T06:58:59;53.38;;;24.10;;
53108;SDS011;39007;53.090;6.074;2022-12-18T07:01:26;52.25;;;25.33;;
53108;SDS011;39007;53.090;6.074;2022-12-18T07:03:53;50.15;;;23.98;;
53108;SDS011;39007;53.090;6.074;2022-12-18T07:06:20;51.47;;;23.65;;
53108;SDS011;39007;53.090;6.074;2022-12-18T07:08:48;47.90;;;23.05;;
53108;SDS011;39007;53.090;6.074;2022-12-18T07:11:15;51.30;;;22.52;;
53108;SDS011;39007;53.090;6.074;2022-12-18T07:13:41;47.97;;;23.60;;
53108;SDS011;39007;53.090;6.074;2022-12-18T07:16:08;48.08;;;22.67;;
53108;SDS011;39007;53.090;6.074;2022-12-18T07:18:35;50.42;;;22.27;;
53108;SDS011;39007;53.090;6.074;2022-12-18T07:21:08;47.83;;;22.52;;
53108;SDS011;39007;53.090;6.074;2022-12-18T07:23:35;43.33;;;22.20;;
53108;SDS011;39007;53.090;6.074;2022-12-18T07:26:05;43.22;;;21.88;;
53108;SDS011;39007;53.090;6.074;2022-12-18T07:28:32;45.58;;;22.25;;
53108;SDS011;39007;53.090;6.074;2022-12-18T07:31:12;55.47;;;24.45;;
53108;SDS011;39007;53.090;6.074;2022-12-18T07:33:38;47.38;;;23.75;;
53108;SDS011;39007;53.090;6.074;2022-12-18T07:36:05;50.78;;;23.88;;
53108;SDS011;39007;53.090;6.074;2022-12-18T07:38:32;49.13;;;21.73;;
53108;SDS011;39007;53.090;6.074;2022-12-18T07:41:01;51.20;;;23.25;;
53108;SDS011;39007;53.090;6.074;2022-12-18T07:43:28;50.35;;;22.65;;
53108;SDS011;39007;53.090;6.074;2022-12-18T07:45:54;47.92;;;21.98;;
53108;SDS011;39007;53.090;6.074;2022-12-18T07:48:20;43.15;;;21.02;;
53108;SDS011;39007;53.090;6.074;2022-12-18T07:50:46;45.35;;;21.75;;
53108;SDS011;39007;53.090;6.074;2022-12-18T07:53:12;43.08;;;21.40;;
53108;SDS011;39007;53.090;6.074;2022-12-18T07:55:39;42.47;;;21.02;;
53108;SDS011;39007;53.090;6.074;2022-12-18T07:58:06;38.47;;;19.42;;
53108;SDS011;39007;53.090;6.074;2022-12-18T08:00:33;42.15;;;20.02;;
53108;SDS011;39007;53.090;6.074;2022-12-18T08:02:59;41.35;;;21.08;;
53108;SDS011;39007;53.090;6.074;2022-12-18T08:05:25;41.75;;;20.38;;
53108;SDS011;39007;53.090;6.074;2022-12-18T08:07:51;39.42;;;18.80;;
53108;SDS011;39007;53.090;6.074;2022-12-18T08:10:18;37.72;;;19.83;;
53108;SDS011;39007;53.090;6.074;2022-12-18T08:12:44;40.65;;;19.98;;
53108;SDS011;39007;53.090;6.074;2022-12-18T08:15:12;36.40;;;19.73;;
53108;SDS011;39007;53.090;6.074;2022-12-18T08:17:38;42.10;;;20.08;;
53108;SDS011;39007;53.090;6.074;2022-12-18T08:20:05;41.53;;;20.83;;
53108;SDS011;39007;53.090;6.074;2022-12-18T08:22:33;40.75;;;20.75;;
53108;SDS011;39007;53.090;6.074;2022-12-18T08:24:59;40.38;;;20.90;;
53108;SDS011;39007;53.090;6.074;2022-12-18T08:27:25;37.55;;;20.25;;
53108;SDS011;39007;53.090;6.074;2022-12-18T08:29:51;46.90;;;19.25;;
53108;SDS011;39007;53.090;6.074;2022-12-18T08:32:17;40.00;;;19.73;;
53108;SDS011;39007;53.090;6.074;2022-12-18T08:34:43;36.33;;;19.13;;
53108;SDS011;39007;53.090;6.074;2022-12-18T08:37:09;36.25;;;19.65;;
53108;SDS011;39007;53.090;6.074;2022-12-18T08:39:35;38.35;;;20.27;;
53108;SDS011;39007;53.090;6.074;2022-12-18T08:42:02;37.35;;;19.40;;
53108;SDS011;39007;53.090;6.074;2022-12-18T08:44:46;34.58;;;18.98;;
53108;SDS011;39007;53.090;6.074;2022-12-18T08:47:13;37.58;;;18.92;;
53108;SDS011;39007;53.090;6.074;2022-12-18T08:49:39;34.95;;;19.30;;
53108;SDS011;39007;53.090;6.074;2022-12-18T08:52:05;39.00;;;19.52;;
53108;SDS011;39007;53.090;6.074;2022-12-18T08:54:32;32.13;;;17.75;;
53108;SDS011;39007;53.090;6.074;2022-12-18T08:56:58;33.58;;;19.35;;
53108;SDS011;39007;53.090;6.074;2022-12-18T08:59:24;34.10;;;18.05;;
53108;SDS011;39007;53.090;6.074;2022-12-18T09:01:53;33.05;;;17.52;;
53108;SDS011;39007;53.090;6.074;2022-12-18T09:04:20;32.58;;;17.88;;
53108;SDS011;39007;53.090;6.074;2022-12-18T09:06:46;33.30;;;17.48;;
53108;SDS011;39007;53.090;6.074;2022-12-18T09:09:12;33.17;;;17.55;;
53108;SDS011;39007;53.090;6.074;2022-12-18T09:11:38;26.98;;;15.43;;
53108;SDS011;39007;53.090;6.074;2022-12-18T09:14:05;25.27;;;14.70;;
53108;SDS011;39007;53.090;6.074;2022-12-18T09:16:31;31.73;;;16.75;;
53108;SDS011;39007;53.090;6.074;2022-12-18T09:19:00;29.63;;;15.50;;
53108;SDS011;39007;53.090;6.074;2022-12-18T09:21:30;28.38;;;15.93;;
53108;SDS011;39007;53.090;6.074;2022-12-18T09:23:57;29.98;;;16.02;;
53108;SDS011;39007;53.090;6.074;2022-12-18T09:26:24;32.83;;;15.20;;
53108;SDS011;39007;53.090;6.074;2022-12-18T09:28:50;30.58;;;17.13;;
53108;SDS011;39007;53.090;6.074;2022-12-18T09:31:17;32.05;;;16.30;;
53108;SDS011;39007;53.090;6.074;2022-12-18T09:33:44;30.33;;;16.48;;
53108;SDS011;39007;53.090;6.074;2022-12-18T09:36:11;29.60;;;16.92;;
53108;SDS011;39007;53.090;6.074;2022-12-18T09:38:37;30.02;;;16.55;;
53108;SDS011;39007;53.090;6.074;2022-12-18T09:43:33;29.23;;;16.55;;
53108;SDS011;39007;53.090;6.074;2022-12-18T09:46:03;25.83;;;15.60;;
53108;SDS011;39007;53.090;6.074;2022-12-18T09:48:31;24.73;;;14.95;;
53108;SDS011;39007;53.090;6.074;2022-12-18T09:51:00;26.50;;;16.10;;
53108;SDS011;39007;53.090;6.074;2022-12-18T09:53:30;23.40;;;14.65;;
53108;SDS011;39007;53.090;6.074;2022-12-18T09:55:56;23.77;;;14.75;;
53108;SDS011;39007;53.090;6.074;2022-12-18T09:58:30;24.45;;;13.90;;
53108;SDS011;39007;53.090;6.074;2022-12-18T10:00:57;23.25;;;15.05;;
53108;SDS011;39007;53.090;6.074;2022-12-18T10:03:23;25.58;;;15.40;;
53108;SDS011;39007;53.090;6.074;2022-12-18T10:06:05;22.77;;;14.68;;
53108;SDS011;39007;53.090;6.074;2022-12-18T10:08:36;25.73;;;14.73;;
53108;SDS011;39007;53.090;6.074;2022-12-18T10:14:00;23.67;;;14.48;;
53108;SDS011;39007;53.090;6.074;2022-12-18T10:16:34;24.40;;;14.82;;
53108;SDS011;39007;53.090;6.074;2022-12-18T10:19:07;20.98;;;12.18;;
53108;SDS011;39007;53.090;6.074;2022-12-18T10:26:55;28.75;;;15.18;;
53108;SDS011;39007;53.090;6.074;2022-12-18T10:29:25;23.98;;;14.02;;
53108;SDS011;39007;53.090;6.074;2022-12-18T10:31:51;23.92;;;14.63;;
53108;SDS011;39007;53.090;6.074;2022-12-18T10:34:17;22.85;;;13.57;;
53108;SDS011;39007;53.090;6.074;2022-12-18T10:36:43;20.92;;;13.63;;
53108;SDS011;39007;53.090;6.074;2022-12-18T10:39:16;23.27;;;14.35;;
53108;SDS011;39007;53.090;6.074;2022-12-18T10:41:42;22.70;;;13.27;;
53108;SDS011;39007;53.090;6.074;2022-12-18T10:44:11;25.15;;;15.07;;
53108;SDS011;39007;53.090;6.074;2022-12-18T10:46:37;23.67;;;14.52;;
53108;SDS011;39007;53.090;6.074;2022-12-18T10:49:03;24.42;;;15.93;;
53108;SDS011;39007;53.090;6.074;2022-12-18T10:51:31;24.58;;;14.35;;
53108;SDS011;39007;53.090;6.074;2022-12-18T10:56:43;23.27;;;14.77;;
53108;SDS011;39007;53.090;6.074;2022-12-18T10:59:10;27.65;;;16.45;;
53108;SDS011;39007;53.090;6.074;2022-12-18T11:01:53;87.03;;;49.80;;
53108;SDS011;39007;53.090;6.074;2022-12-18T11:06:53;30.27;;;19.88;;
53108;SDS011;39007;53.090;6.074;2022-12-18T11:09:41;26.25;;;16.70;;
53108;SDS011;39007;53.090;6.074;2022-12-18T11:12:19;26.00;;;15.45;;
53108;SDS011;39007;53.090;6.074;2022-12-18T11:14:46;33.47;;;21.00;;
53108;SDS011;39007;53.090;6.074;2022-12-18T11:19:45;24.15;;;14.70;;
53108;SDS011;39007;53.090;6.074;2022-12-18T11:25:00;29.10;;;17.80;;
53108;SDS011;39007;53.090;6.074;2022-12-18T11:27:26;42.97;;;26.17;;
53108;SDS011;39007;53.090;6.074;2022-12-18T11:30:06;27.02;;;18.45;;
53108;SDS011;39007;53.090;6.074;2022-12-18T11:32:38;22.55;;;13.38;;
53108;SDS011;39007;53.090;6.074;2022-12-18T11:35:19;22.88;;;13.07;;
53108;SDS011;39007;53.090;6.074;2022-12-18T11:37:48;23.63;;;15.48;;
53108;SDS011;39007;53.090;6.074;2022-12-18T11:40:17;20.30;;;15.13;;
53108;SDS011;39007;53.090;6.074;2022-12-18T11:42:54;20.13;;;12.23;;
53108;SDS011;39007;53.090;6.074;2022-12-18T11:45:25;20.05;;;13.13;;
53108;SDS011;39007;53.090;6.074;2022-12-18T11:50:19;47.10;;;29.30;;
53108;SDS011;39007;53.090;6.074;2022-12-18T11:52:47;69.28;;;41.47;;
53108;SDS011;39007;53.090;6.074;2022-12-18T11:55:14;36.75;;;23.27;;
53108;SDS011;39007;53.090;6.074;2022-12-18T12:00:18;35.88;;;22.98;;
53108;SDS011;39007;53.090;6.074;2022-12-18T12:15:20;30.35;;;19.15;;
53108;SDS011;39007;53.090;6.074;2022-12-18T12:20:26;31.42;;;17.80;;
53108;SDS011;39007;53.090;6.074;2022-12-18T12:22:58;23.17;;;14.38;;
53108;SDS011;39007;53.090;6.074;2022-12-18T12:28:12;22.35;;;14.32;;
53108;SDS011;39007;53.090;6.074;2022-12-18T12:33:28;40.25;;;22.15;;
53108;SDS011;39007;53.090;6.074;2022-12-18T12:38:42;18.63;;;11.65;;
53108;SDS011;39007;53.090;6.074;2022-12-18T12:41:12;17.23;;;10.20;;
53108;SDS011;39007;53.090;6.074;2022-12-18T12:43:58;17.30;;;9.98;;
53108;SDS011;39007;53.090;6.074;2022-12-18T12:46:25;16.08;;;9.65;;
53108;SDS011;39007;53.090;6.074;2022-12-18T12:48:55;19.83;;;10.32;;
53108;SDS011;39007;53.090;6.074;2022-12-18T12:51:24;14.00;;;8.63;;
53108;SDS011;39007;53.090;6.074;2022-12-18T12:53:50;14.82;;;10.05;;
53108;SDS011;39007;53.090;6.074;2022-12-18T12:56:18;16.27;;;9.70;;
53108;SDS011;39007;53.090;6.074;2022-12-18T13:01:35;16.63;;;10.80;;
53108;SDS011;39007;53.090;6.074;2022-12-18T13:06:50;13.32;;;6.88;;
53108;SDS011;39007;53.090;6.074;2022-12-18T13:09:19;13.15;;;7.70;;
53108;SDS011;39007;53.090;6.074;2022-12-18T13:11:46;13.70;;;7.72;;
53108;SDS011;39007;53.090;6.074;2022-12-18T13:14:37;11.70;;;6.97;;
53108;SDS011;39007;53.090;6.074;2022-12-18T13:20:19;9.90;;;6.72;;
53108;SDS011;39007;53.090;6.074;2022-12-18T13:22:45;9.55;;;5.80;;
53108;SDS011;39007;53.090;6.074;2022-12-18T13:25:32;11.23;;;6.13;;
53108;SDS011;39007;53.090;6.074;2022-12-18T13:38:21;9.90;;;5.68;;
53108;SDS011;39007;53.090;6.074;2022-12-18T13:45:48;10.43;;;5.55;;
53108;SDS011;39007;53.090;6.074;2022-12-18T13:48:16;11.20;;;6.30;;
53108;SDS011;39007;53.090;6.074;2022-12-18T13:50:43;10.23;;;5.82;;
53108;SDS011;39007;53.090;6.074;2022-12-18T13:53:19;9.35;;;6.03;;
53108;SDS011;39007;53.090;6.074;2022-12-18T13:55:46;10.88;;;6.38;;
53108;SDS011;39007;53.090;6.074;2022-12-18T13:58:13;9.73;;;5.80;;
53108;SDS011;39007;53.090;6.074;2022-12-18T14:00:42;9.63;;;5.97;;
53108;SDS011;39007;53.090;6.074;2022-12-18T14:03:19;11.95;;;5.95;;
53108;SDS011;39007;53.090;6.074;2022-12-18T14:05:45;11.27;;;5.72;;
53108;SDS011;39007;53.090;6.074;2022-12-18T14:08:17;11.20;;;6.65;;
53108;SDS011;39007;53.090;6.074;2022-12-18T14:10:45;10.23;;;6.00;;
53108;SDS011;39007;53.090;6.074;2022-12-18T14:13:15;9.77;;;6.07;;
53108;SDS011;39007;53.090;6.074;2022-12-18T14:15:43;11.25;;;6.45;;
53108;SDS011;39007;53.090;6.074;2022-12-18T14:18:22;11.20;;;6.28;;
53108;SDS011;39007;53.090;6.074;2022-12-18T14:20:50;12.18;;;7.03;;
53108;SDS011;39007;53.090;6.074;2022-12-18T14:23:31;10.73;;;6.72;;
53108;SDS011;39007;53.090;6.074;2022-12-18T14:25:57;9.55;;;6.05;;
53108;SDS011;39007;53.090;6.074;2022-12-18T14:28:24;10.25;;;6.57;;
53108;SDS011;39007;53.090;6.074;2022-12-18T14:30:51;13.00;;;6.75;;
53108;SDS011;39007;53.090;6.074;2022-12-18T14:33:21;13.55;;;6.78;;
53108;SDS011;39007;53.090;6.074;2022-12-18T14:41:32;23.58;;;20.25;;
53108;SDS011;39007;53.090;6.074;2022-12-18T14:43:39;18.27;;;12.85;;
53108;SDS011;39007;53.090;6.074;2022-12-18T14:46:24;15.15;;;9.55;;
53108;SDS011;39007;53.090;6.074;2022-12-18T14:48:51;13.40;;;8.60;;
53108;SDS011;39007;53.090;6.074;2022-12-18T14:51:21;13.50;;;9.20;;
53108;SDS011;39007;53.090;6.074;2022-12-18T14:53:49;13.02;;;7.85;;
53108;SDS011;39007;53.090;6.074;2022-12-18T14:56:22;13.77;;;6.70;;
53108;SDS011;39007;53.090;6.074;2022-12-18T14:58:56;11.75;;;7.05;;
53108;SDS011;39007;53.090;6.074;2022-12-18T15:01:27;12.02;;;7.55;;
53108;SDS011;39007;53.090;6.074;2022-12-18T15:03:54;13.30;;;7.65;;
53108;SDS011;39007;53.090;6.074;2022-12-18T15:06:25;12.93;;;7.90;;
53108;SDS011;39007;53.090;6.074;2022-12-18T15:08:52;11.45;;;6.90;;
53108;SDS011;39007;53.090;6.074;2022-12-18T15:11:26;12.30;;;7.10;;
53108;SDS011;39007;53.090;6.074;2022-12-18T15:13:52;10.68;;;6.35;;
53108;SDS011;39007;53.090;6.074;2022-12-18T15:16:18;11.77;;;6.85;;
53108;SDS011;39007;53.090;6.074;2022-12-18T15:18:44;10.40;;;6.90;;
53108;SDS011;39007;53.090;6.074;2022-12-18T15:21:16;11.07;;;6.85;;
53108;SDS011;39007;53.090;6.074;2022-12-18T15:26:09;12.77;;;7.20;;
53108;SDS011;39007;53.090;6.074;2022-12-18T15:28:43;13.07;;;7.20;;
53108;SDS011;39007;53.090;6.074;2022-12-18T15:33:38;10.35;;;6.40;;
53108;SDS011;39007;53.090;6.074;2022-12-18T15:36:08;14.60;;;7.30;;
53108;SDS011;39007;53.090;6.074;2022-12-18T15:38:35;10.23;;;6.60;;
53108;SDS011;39007;53.090;6.074;2022-12-18T15:41:01;11.43;;;7.00;;
53108;SDS011;39007;53.090;6.074;2022-12-18T15:43:27;11.60;;;6.88;;
53108;SDS011;39007;53.090;6.074;2022-12-18T15:46:03;10.52;;;6.60;;
53108;SDS011;39007;53.090;6.074;2022-12-18T15:48:31;12.75;;;7.47;;
53108;SDS011;39007;53.090;6.074;2022-12-18T15:50:57;13.93;;;7.50;;
53108;SDS011;39007;53.090;6.074;2022-12-18T15:53:31;13.13;;;7.50;;
53108;SDS011;39007;53.090;6.074;2022-12-18T15:55:58;12.52;;;7.78;;
53108;SDS011;39007;53.090;6.074;2022-12-18T15:58:43;12.57;;;7.88;;
53108;SDS011;39007;53.090;6.074;2022-12-18T16:01:09;12.65;;;8.15;;
53108;SDS011;39007;53.090;6.074;2022-12-18T16:03:36;13.63;;;8.13;;
53108;SDS011;39007;53.090;6.074;2022-12-18T16:06:02;31.58;;;19.15;;
53108;SDS011;39007;53.090;6.074;2022-12-18T16:08:29;84.10;;;43.65;;
53108;SDS011;39007;53.090;6.074;2022-12-18T16:10:55;29.88;;;20.58;;
53108;SDS011;39007;53.090;6.074;2022-12-18T16:13:22;15.88;;;11.18;;
53108;SDS011;39007;53.090;6.074;2022-12-18T16:15:48;14.10;;;8.38;;
53108;SDS011;39007;53.090;6.074;2022-12-18T16:18:14;14.95;;;8.15;;
53108;SDS011;39007;53.090;6.074;2022-12-18T16:20:40;14.60;;;8.57;;
53108;SDS011;39007;53.090;6.074;2022-12-18T16:23:07;12.57;;;7.63;;